Station: Warruwi

  Atmospheric Gas Attenuation - ITU Rec 676-11   --------------- db/100km ---------------
Date Time Temp RH % AH g/m3 Dew Point Wind Direction Speed kph Gust kph Barometer mB Rainfall Since 9am 24GHz 47GHz 76GHz 122GHz 134GHz 241GHz
11 22:30 26.9 89 22.78 24.9 0 0 1011.3 0 48.8 46.4 93.4 247.3 278.3 967.0
11 22:20 26.8 89 22.65 24.8 0 0 1013.1 0 48.5 46.3 93.0 246.2 276.9 962.0
11 22:10 26.8 89 22.65 24.8 0 0 1013.1 0 48.5 46.3 93.0 246.2 276.9 962.0
11 22:00 26.8 88 22.4 24.6 0 0 1011 0 48.0 45.7 91.6 242.5 272.4 946.5
11 21:50 26.9 88 22.52 24.7 0 0 1013.1 0 48.2 45.9 92.2 244.2 274.4 953.3
11 21:40 26.9 89 22.78 24.9 0 0 1013.1 0 48.8 46.5 93.5 247.6 278.6 968.2
11 21:30 26.9 88 22.52 24.7 0 0 1010.9 0 48.2 45.8 92.1 243.8 274.0 952.0
11 21:20 27 87 22.39 24.6 0 0 1013.1 0 47.9 45.6 91.4 242.1 271.9 944.7
11 21:10 27.1 86 22.26 24.5 0 0 1013.1 0 47.6 45.3 90.7 240.1 269.4 936.1
11 21:00 27.2 85 22.12 24.5 0 0 1010.6 0 47.4 44.9 89.7 237.5 266.3 925.5
11 20:50 27.4 85 22.37 24.6 0 0 1013.1 0 47.8 45.4 90.9 240.6 270.1 938.5
11 20:40 27.4 85 22.37 24.6 0 0 1013.1 0 47.8 45.4 90.9 240.6 270.1 938.5
11 20:30 27.5 85 22.49 24.7 0 0 1010.2 0 48.1 45.4 91.1 241.3 271.1 942.2
11 20:20 27.5 85 22.49 24.7 0 0 1013.1 0 48.1 45.5 91.3 241.8 271.7 944.0
11 20:10 27.7 84 22.47 24.7 0 0 1013.1 0 48.0 45.4 91.0 240.9 270.6 940.4
11 20:00 27.7 83 22.2 24.5 2 4 1009.7 0 47.5 44.7 89.4 236.8 265.7 923.2
11 19:50 27.8 83 22.33 24.6 4 4 1013.1 0 47.7 45.1 90.2 238.7 268.0 931.3
11 19:40 28 82 22.3 24.6 2 2 1013.1 0 47.6 44.9 89.8 237.7 266.8 927.1
11 19:30 28 81 22.03 24.4 2 4 1009.2 0 47.1 44.2 88.2 233.5 261.8 909.8
11 19:20 28.2 79 21.72 24.2 0 0 1013.1 0 46.4 43.6 86.7 229.6 256.9 892.7
11 19:10 28.6 77 21.64 24.3 0 0 1013.1 0 46.1 43.3 85.9 227.3 254.2 883.6
11 19:00 28.7 77 21.76 24.3 2 4 1008.9 0 46.4 43.3 86.1 227.9 255.1 886.5
11 18:50 28.9 76 21.71 24.2 4 4 1013.1 0 46.3 43.3 85.9 227.3 254.3 883.9
11 18:40 29.3 75 21.9 24.4 4 4 1013.1 0 46.6 43.4 86.3 228.5 255.9 889.5
11 18:30 29.5 74 21.84 24.4 2 6 1008.8 0 46.5 43.0 85.5 226.5 253.5 881.4
11 18:20 30.2 71 21.77 24.5 2 4 1013.1 0 46.2 42.7 84.7 224.2 250.8 872.0
11 18:10 30.9 71 22.61 25 0 2 1013.1 0 47.9 43.9 87.9 232.6 261.4 908.7
11 18:00 31.4 70 22.89 25.3 0 2 1008.6 0 48.5 44.0 88.3 233.9 263.2 915.0
11 17:50 31.1 68 21.88 24.7 0 0 1013.1 0 46.3 42.4 84.2 222.9 249.5 867.5
11 17:40 31.4 67 21.91 24.5 2 4 1013.1 0 46.4 42.4 84.0 222.4 248.9 865.7
11 17:30 31.5 67 22.03 24.6 4 7 1008.5 0 46.7 42.3 84.1 222.9 249.7 868.2
11 17:20 31.6 65 21.49 24.4 6 7 1013.1 0 45.5 41.5 81.8 216.7 242.0 841.5
11 17:10 31.4 65 21.26 24 7 9 1013.1 0 45.0 41.2 81.0 214.5 239.2 831.8
11 17:00 31.7 67 22.27 24.8 6 9 1008.2 0 47.1 42.7 85.0 225.2 252.6 878.3
11 16:50 31.7 65 21.6 24.5 6 9 1013.1 0 45.7 41.6 82.2 217.8 243.3 846.1
11 16:40 31.8 65 21.72 24.6 4 6 1013.1 0 45.9 41.8 82.7 218.9 244.8 851.3
11 16:30 31.7 65 21.6 24.3 7 13 1008 0 45.7 41.4 81.9 216.9 242.5 843.3
11 16:20 31.9 63 21.16 24.2 11 13 1013.1 0 44.7 40.7 80.0 211.9 236.1 821.3
11 16:10 32.3 64 21.96 24.6 4 9 1013.1 0 46.4 42.0 83.2 220.4 246.7 858.1
11 16:00 32.5 61 21.15 24 6 11 1007.9 0 44.7 40.2 79.0 209.3 233.3 811.5
11 15:50 32.4 61 21.04 23.9 4 7 1013.1 0 44.4 40.3 79.0 209.1 232.8 809.8
11 15:40 32.2 59 20.14 23.4 6 6 1013.1 0 42.6 38.8 75.2 199.0 220.4 766.6
11 15:30 32.4 62 21.39 24.2 6 11 1007.9 0 45.2 40.7 80.2 212.4 237.1 824.8
11 15:20 32.3 61 20.93 23.8 7 11 1013.1 0 44.2 40.1 78.6 208.0 231.5 805.3
11 15:10 32.4 58 20.01 23.3 7 9 1013.1 0 42.3 38.4 74.4 197.0 218.0 758.2
11 15:00 32.1 60 20.37 23.6 9 13 1008.1 0 43.1 39.0 76.0 201.2 223.3 776.5
11 14:50 32.2 61 20.82 23.7 9 11 1013.1 0 44.0 40.0 78.2 207.0 230.2 800.8
11 14:40 32.2 61 20.82 23.9 7 9 1013.1 0 44.0 40.0 78.2 207.0 230.2 800.8
11 14:30 32.5 59 20.46 23.7 6 13 1008.5 0 43.3 39.0 76.0 201.3 223.4 777.1
11 14:20 32.5 61 21.15 24.2 4 7 1013.1 0 44.7 40.4 79.4 210.1 234.1 814.3
11 14:10 32.1 62 21.05 23.9 4 6 1013.1 0 44.5 40.4 79.3 210.0 233.9 813.5
11 14:00 32.9 63 22.32 24.9 6 11 1008.8 0 47.1 42.2 83.9 222.4 249.4 867.5
11 13:50 31.8 62 20.72 23.8 6 7 1013.1 0 43.8 40.0 78.2 206.9 230.0 799.9
11 13:40 31.6 63 20.83 23.9 2 2 1013.1 0 44.1 40.3 78.9 208.7 232.2 807.6
11 13:30 31.5 64 21.04 23.9 4 11 1009.4 0 44.6 40.5 79.7 211.0 235.0 817.4
11 13:20 31.1 64 20.6 23.7 6 9 1013.1 0 43.7 40.1 78.3 207.3 230.4 801.1
11 13:10 30.6 66 20.68 23.7 6 7 1013.1 0 43.9 40.5 79.2 209.7 233.1 810.4
11 13:00 31 66 21.13 24.1 6 9 1009.8 0 44.8 41.0 80.6 213.5 238.0 827.6
11 12:50 30.9 63 20.06 23.2 9 13 1013.1 0 42.6 39.2 76.1 201.4 223.1 775.6
11 12:40 31.4 63 20.6 23.7 9 9 1013.1 0 43.6 40.0 78.0 206.5 229.5 797.9
11 12:30 31.7 63 20.94 23.8 7 11 1010.2 0 44.3 40.3 79.1 209.3 233.1 810.5
11 12:20 31.3 65 21.14 24.1 7 9 1013.1 0 44.8 41.0 80.6 213.3 237.7 826.7
11 12:10 31.9 67 22.51 25.2 11 13 1013.1 0 47.6 43.2 86.2 228.4 256.4 891.5
11 12:00 31.2 66 21.35 24.1 11 15 1010.4 0 45.2 41.3 81.5 215.7 240.8 837.2
11 11:50 31.1 67 21.56 24.4 13 15 1013.1 0 45.7 41.9 82.7 219.0 244.7 850.7
11 11:40 31.2 65 21.03 24 9 13 1013.1 0 44.6 40.8 80.2 212.3 236.4 822.1
11 11:30 30.7 65 20.47 23.4 9 15 1010.9 0 43.5 40.0 78.0 206.5 229.3 797.4
11 11:20 31.3 67 21.8 24.6 9 9 1013.1 0 46.2 42.2 83.6 221.4 247.6 861.1
11 11:10 30.6 64 20.05 23.2 11 13 1013.1 0 42.6 39.3 76.4 202.1 223.8 778.2
11 11:00 31.2 66 21.35 24.3 7 11 1011.2 0 45.2 41.3 81.5 215.8 240.9 837.6
11 10:50 31 64 20.49 23.6 6 7 1013.1 0 43.5 39.9 77.9 206.3 229.1 796.5
11 10:40 30.6 64 20.05 23.2 6 7 1013.1 0 42.6 39.3 76.4 202.1 223.8 778.2
11 10:30 30.7 67 21.1 23.9 6 9 1011.5 0 44.8 41.1 80.9 214.2 238.8 830.3
11 10:20 30.2 65 19.93 23.1 7 9 1013.1 0 42.4 39.3 76.2 201.7 223.2 776.1
11 10:10 29.4 69 20.26 23.3 2 4 1013.1 0 43.1 40.3 78.5 207.8 230.5 801.4
11 10:00 29.2 73 21.2 23.9 7 9 1011.7 0 45.2 42.1 83.0 219.8 245.2 852.2
11 09:50 29.6 73 21.67 24.4 7 9 1013.1 0 46.1 42.8 84.9 224.7 251.3 873.6
11 09:40 29.3 76 22.19 24.6 7 9 1013.1 0 47.2 44.0 87.7 232.2 260.4 905.2
11 09:30 30 73 22.14 24.6 4 11 1011.7 0 47.0 43.4 86.6 229.2 257.0 893.4
11 09:20 30.2 70 21.46 24.3 0 0 1013.1 0 45.6 42.1 83.2 220.4 246.1 855.6
11 09:10 29.7 72 21.49 24.1 2 2 1013.1 0 45.7 42.4 83.9 222.2 248.2 862.8
11 09:00 29.5 76 22.43 24.8 2 6 1011.8 0 47.7 44.3 88.5 234.5 263.3 915.1
11 08:50 28.9 80 22.86 25.1 2 4 1013.1 0 48.7 45.5 91.4 242.2 272.5 947.0
11 08:40 28.8 84 23.87 25.8 4 6 1013.1 0 50.8 47.6 96.6 255.8 289.2 1005.2
11 08:30 28.5 85 23.76 25.7 6 7 1011.5 0 50.7 47.5 96.3 255.1 288.3 1001.9
11 08:20 28 88 23.93 25.8 6 7 1013.1 0 51.1 48.2 98.0 259.4 293.4 1019.5
11 08:10 27.3 91 23.81 25.8 4 4 1013.1 0 50.9 48.3 98.3 260.2 294.2 1022.2
11 08:00 27 95 24.45 26.1 0 2 1011.4 0 52.3 49.8 101.9 269.8 305.9 1062.8
11 07:50 26.4 95 23.65 25.5 2 2 1013.1 0 50.7 48.5 98.6 261.2 295.1 1025.3
11 07:40 26.1 94 23.01 25 0 0 1013.1 0 49.4 47.4 95.7 253.5 285.5 992.0
11 07:30 26 94 22.88 25 0 0 1011.3 0 49.1 47.1 95.1 251.7 283.4 984.6
11 07:20 25.8 94 22.63 24.7 0 0 1013.1 0 48.6 46.8 94.2 249.3 280.3 973.9
11 07:10 25.7 94 22.5 24.6 0 0 1013.1 0 48.3 46.6 93.6 247.9 278.6 967.7
11 07:00 25.7 94 22.5 24.7 0 0 1010.9 0 48.4 46.5 93.5 247.5 278.2 966.3
11 06:50 25.6 92 21.9 24.3 0 0 1013.1 0 47.1 45.4 90.7 240.1 269.0 934.5
11 06:40 25.7 94 22.5 24.6 0 0 1013.1 0 48.3 46.6 93.6 247.9 278.6 967.7
11 06:30 25.7 94 22.5 24.7 0 0 1010.6 0 48.4 46.5 93.4 247.4 278.1 966.1
11 06:20 25.8 94 22.63 24.7 0 0 1013.1 0 48.6 46.8 94.2 249.3 280.3 973.9
11 06:10 25.9 94 22.76 24.8 0 0 1013.1 0 48.9 47.0 94.7 250.7 282.1 980.1
11 06:00 25.9 94 22.76 24.9 0 0 1010.2 0 48.9 46.9 94.5 250.2 281.6 978.3

Last Refresh: 11-Apr-2021 22:34:26

Bureau of Meteorology